createdAt,value
2022-11-27T00:00:25.824Z,7.35
2022-11-27T00:01:25.807Z,7.31
2022-11-27T00:02:25.878Z,7.36
2022-11-27T00:03:25.960Z,7.39
2022-11-27T00:04:25.776Z,7.28
2022-11-27T00:05:25.767Z,7.32
2022-11-27T00:06:25.826Z,7.28
2022-11-27T00:07:25.803Z,7.31
2022-11-27T00:08:25.751Z,7.42
2022-11-27T00:09:25.739Z,7.40
2022-11-27T00:10:25.706Z,7.36
2022-11-27T00:11:25.786Z,7.38
2022-11-27T00:12:25.712Z,7.39
2022-11-27T00:13:25.684Z,7.38
2022-11-27T00:14:25.675Z,7.42
2022-11-27T00:15:25.679Z,7.33
2022-11-27T00:16:25.710Z,7.33
2022-11-27T00:17:25.660Z,7.39
2022-11-27T00:18:25.649Z,7.36
2022-11-27T00:19:25.625Z,7.33
2022-11-27T00:20:29.624Z,7.25
2022-11-27T00:21:25.584Z,7.35
2022-11-27T00:22:25.592Z,7.36
2022-11-27T00:23:25.627Z,7.39
2022-11-27T00:24:25.579Z,7.24
2022-11-27T00:25:25.542Z,7.24
2022-11-27T00:26:25.565Z,7.28
2022-11-27T00:27:25.517Z,7.28
2022-11-27T00:28:25.505Z,7.18
2022-11-27T00:29:25.534Z,7.23
2022-11-27T00:30:25.506Z,7.17
2022-11-27T00:31:25.555Z,7.18
2022-11-27T00:32:25.469Z,7.24
2022-11-27T00:33:25.451Z,7.21
2022-11-27T00:34:25.508Z,7.18
2022-11-27T00:35:25.451Z,7.21
2022-11-27T00:36:25.424Z,7.13
2022-11-27T00:37:25.481Z,7.20
2022-11-27T00:38:25.404Z,7.24
2022-11-27T00:39:25.402Z,7.20
2022-11-27T00:40:25.373Z,7.24
2022-11-27T00:41:25.382Z,7.24
2022-11-27T00:42:25.384Z,7.29
2022-11-27T00:43:25.548Z,7.33
2022-11-27T00:44:25.343Z,7.24
2022-11-27T00:45:25.321Z,7.24
2022-11-27T00:46:28.370Z,7.39
2022-11-27T00:47:25.294Z,7.35
2022-11-27T00:48:25.317Z,7.29
2022-11-27T00:49:25.310Z,7.25
2022-11-27T00:50:25.264Z,7.29
2022-11-27T00:51:25.259Z,7.31
2022-11-27T00:52:25.244Z,7.32
2022-11-27T00:53:25.265Z,7.29
2022-11-27T00:54:25.250Z,7.38
2022-11-27T00:55:25.253Z,7.28
2022-11-27T00:56:25.231Z,7.32
2022-11-27T00:57:25.186Z,7.38
2022-11-27T00:58:25.186Z,7.36
2022-11-27T00:59:25.247Z,7.31
2022-11-27T01:00:25.153Z,7.38
2022-11-27T01:01:25.178Z,7.35
2022-11-27T01:02:25.240Z,7.40
2022-11-27T01:03:25.131Z,7.40
2022-11-27T01:04:25.131Z,7.35
2022-11-27T01:05:25.117Z,7.38
2022-11-27T01:06:25.092Z,7.47
2022-11-27T01:07:25.119Z,7.36
2022-11-27T01:08:25.137Z,7.43
2022-11-27T01:09:25.105Z,7.40
2022-11-27T01:10:25.062Z,7.35
2022-11-27T01:11:25.047Z,7.36
2022-11-27T01:12:25.041Z,7.35
2022-11-27T01:13:25.028Z,7.38
2022-11-27T01:14:25.253Z,7.40
2022-11-27T01:15:24.992Z,7.36
2022-11-27T01:16:25.037Z,7.33
2022-11-27T01:17:25.014Z,7.36
2022-11-27T01:18:24.967Z,7.36
2022-11-27T01:19:24.982Z,7.35
2022-11-27T01:20:24.926Z,7.40
2022-11-27T01:21:24.927Z,7.38
2022-11-27T01:22:24.999Z,7.42
2022-11-27T01:23:24.898Z,7.36
2022-11-27T01:24:24.912Z,7.42
2022-11-27T01:25:27.036Z,7.40
2022-11-27T01:26:24.858Z,7.33
2022-11-27T01:27:24.876Z,7.32
2022-11-27T01:28:24.841Z,7.18
2022-11-27T01:29:24.872Z,7.18
2022-11-27T01:30:24.895Z,7.28
2022-11-27T01:31:24.883Z,7.31
2022-11-27T01:32:24.796Z,7.29
2022-11-27T01:33:24.836Z,7.31
2022-11-27T01:34:24.772Z,7.29
2022-11-27T01:35:24.771Z,7.11
2022-11-27T01:36:24.751Z,7.17
2022-11-27T01:37:24.747Z,7.13
2022-11-27T01:38:24.734Z,7.14
2022-11-27T01:39:24.758Z,7.03
2022-11-27T01:40:24.708Z,7.13
2022-11-27T01:41:24.726Z,7.07
2022-11-27T01:42:24.720Z,7.03
2022-11-27T01:43:24.692Z,7.05
2022-11-27T01:44:24.675Z,7.00
2022-11-27T01:45:24.652Z,7.00
2022-11-27T01:46:24.794Z,7.03
2022-11-27T01:47:24.643Z,7.07
2022-11-27T01:48:24.653Z,7.02
2022-11-27T01:49:24.620Z,7.10
2022-11-27T01:50:24.613Z,7.13
2022-11-27T01:51:24.615Z,7.06
2022-11-27T01:52:24.582Z,7.07
2022-11-27T01:53:24.580Z,7.07
2022-11-27T01:54:24.591Z,7.05
2022-11-27T01:55:24.545Z,7.14
2022-11-27T01:56:24.560Z,7.14
2022-11-27T01:57:24.518Z,7.05
2022-11-27T01:58:24.565Z,7.11
2022-11-27T01:59:24.543Z,7.07
2022-11-27T02:00:24.486Z,7.06
2022-11-27T02:01:24.602Z,7.03
2022-11-27T02:02:24.577Z,7.06
2022-11-27T02:03:24.551Z,6.93
2022-11-27T02:04:24.471Z,7.00
2022-11-27T02:05:24.431Z,7.03
2022-11-27T02:06:24.417Z,7.02
2022-11-27T02:07:24.540Z,7.06
2022-11-27T02:08:24.398Z,7.14
2022-11-27T02:09:24.438Z,7.06
2022-11-27T02:10:24.410Z,7.06
2022-11-27T02:11:24.401Z,7.00
2022-11-27T02:12:24.358Z,7.06
2022-11-27T02:13:24.350Z,7.02
2022-11-27T02:14:24.327Z,7.03
2022-11-27T02:15:24.378Z,6.96
2022-11-27T02:16:24.463Z,7.00
2022-11-27T02:17:24.294Z,6.95
2022-11-27T02:18:24.332Z,7.02
2022-11-27T02:19:24.280Z,7.02
2022-11-27T02:20:24.256Z,6.87
2022-11-27T02:21:24.278Z,6.87
2022-11-27T02:22:24.237Z,6.92
2022-11-27T02:23:24.233Z,6.88
2022-11-27T02:24:24.248Z,6.93
2022-11-27T02:25:28.291Z,6.88
2022-11-27T02:26:24.192Z,6.85
2022-11-27T02:27:24.201Z,6.82
2022-11-27T02:28:24.203Z,6.87
2022-11-27T02:29:24.195Z,6.78
2022-11-27T02:30:24.184Z,6.78
2022-11-27T02:31:24.205Z,6.81
2022-11-27T02:32:24.186Z,6.84
2022-11-27T02:33:24.128Z,6.84
2022-11-27T02:34:24.154Z,6.81
2022-11-27T02:35:24.185Z,6.75
2022-11-27T02:36:24.122Z,6.69
2022-11-27T02:37:24.071Z,6.67
2022-11-27T02:38:24.077Z,6.69
2022-11-27T02:39:24.057Z,6.70
2022-11-27T02:40:24.072Z,6.64
2022-11-27T02:41:24.044Z,6.79
2022-11-27T02:42:24.142Z,6.67
2022-11-27T02:43:24.054Z,6.63
2022-11-27T02:44:24.004Z,6.66
2022-11-27T02:45:23.980Z,6.66
2022-11-27T02:46:24.014Z,6.67
2022-11-27T02:47:23.960Z,6.70
2022-11-27T02:48:23.975Z,6.70
2022-11-27T02:49:23.941Z,6.82
2022-11-27T02:50:23.955Z,6.70
2022-11-27T02:51:23.937Z,6.69
2022-11-27T02:52:23.913Z,6.77
2022-11-27T02:53:23.929Z,6.70
2022-11-27T02:54:23.883Z,6.70
2022-11-27T02:55:23.942Z,6.64
2022-11-27T02:56:23.895Z,6.74
2022-11-27T02:57:23.848Z,6.72
2022-11-27T02:58:23.972Z,6.69
2022-11-27T02:59:23.838Z,6.59
2022-11-27T03:00:23.812Z,6.64
2022-11-27T03:01:23.878Z,6.63
2022-11-27T03:02:23.876Z,6.64
2022-11-27T03:03:23.785Z,6.57
2022-11-27T03:04:23.768Z,6.70
2022-11-27T03:05:23.786Z,6.63
2022-11-27T03:06:23.747Z,6.67
2022-11-27T03:07:23.840Z,6.78
2022-11-27T03:08:23.753Z,6.75
2022-11-27T03:09:23.721Z,6.63
2022-11-27T03:10:23.752Z,6.63
2022-11-27T03:11:23.694Z,6.67
2022-11-27T03:12:23.712Z,6.63
2022-11-27T03:13:23.672Z,6.60
2022-11-27T03:14:23.787Z,6.69
2022-11-27T03:15:23.690Z,6.63
2022-11-27T03:16:23.740Z,6.70
2022-11-27T03:17:23.660Z,6.64
2022-11-27T03:18:23.614Z,6.63
2022-11-27T03:19:23.614Z,6.54
2022-11-27T03:20:23.595Z,6.56
2022-11-27T03:21:23.579Z,6.56
2022-11-27T03:22:23.649Z,6.59
2022-11-27T03:23:23.579Z,6.59
2022-11-27T03:24:23.601Z,6.60
2022-11-27T03:25:23.557Z,6.56
2022-11-27T03:26:23.522Z,6.59
2022-11-27T03:27:23.515Z,6.66
2022-11-27T03:28:23.531Z,6.66
2022-11-27T03:29:23.488Z,6.57
2022-11-27T03:30:23.606Z,6.59
2022-11-27T03:31:23.552Z,6.60
2022-11-27T03:32:23.456Z,6.59
2022-11-27T03:33:23.497Z,6.62
2022-11-27T03:34:23.431Z,6.64
2022-11-27T03:35:23.422Z,6.62
2022-11-27T03:36:23.426Z,6.60
2022-11-27T03:37:23.435Z,6.67
2022-11-27T03:38:23.442Z,6.54
2022-11-27T03:39:23.381Z,6.59
2022-11-27T03:40:23.393Z,6.59
2022-11-27T03:41:23.397Z,6.60
2022-11-27T03:42:23.368Z,6.62
2022-11-27T03:43:23.336Z,6.57
2022-11-27T03:44:23.329Z,6.57
2022-11-27T03:45:23.325Z,6.70
2022-11-27T03:46:23.502Z,6.59
2022-11-27T03:47:23.396Z,6.56
2022-11-27T03:48:23.295Z,6.57
2022-11-27T03:49:23.273Z,6.49
2022-11-27T03:50:23.256Z,6.52
2022-11-27T03:51:23.258Z,6.51
2022-11-27T03:52:23.234Z,6.57
2022-11-27T03:53:23.240Z,6.51
2022-11-27T03:54:23.233Z,6.48
2022-11-27T03:55:23.202Z,6.56
2022-11-27T03:56:23.194Z,6.59
2022-11-27T03:57:23.200Z,6.51
2022-11-27T03:58:23.206Z,6.45
2022-11-27T03:59:23.172Z,6.49
2022-11-27T04:00:23.175Z,6.54
2022-11-27T04:01:23.228Z,6.51
2022-11-27T04:02:23.247Z,6.42
2022-11-27T04:03:23.150Z,6.52
2022-11-27T04:04:23.158Z,6.52
2022-11-27T04:05:23.123Z,6.51
2022-11-27T04:06:23.084Z,6.51
2022-11-27T04:07:23.107Z,6.56
2022-11-27T04:08:23.079Z,6.56
2022-11-27T04:09:23.087Z,6.56
2022-11-27T04:10:23.043Z,6.51
2022-11-27T04:11:23.052Z,6.51
2022-11-27T04:12:23.013Z,6.41
2022-11-27T04:13:23.062Z,6.39
2022-11-27T04:14:23.034Z,6.44
2022-11-27T04:15:22.981Z,6.42
2022-11-27T04:16:23.155Z,6.38
2022-11-27T04:17:22.982Z,6.41
2022-11-27T04:18:23.106Z,6.41
2022-11-27T04:19:22.944Z,6.45
2022-11-27T04:20:23.004Z,6.41
2022-11-27T04:21:22.916Z,6.39
2022-11-27T04:22:22.921Z,6.49
2022-11-27T04:23:22.948Z,6.52
2022-11-27T04:24:22.930Z,6.54
2022-11-27T04:25:22.880Z,6.49
2022-11-27T04:26:22.881Z,6.59
2022-11-27T04:27:22.846Z,6.56
2022-11-27T04:28:22.850Z,6.56
2022-11-27T04:29:22.917Z,6.62
2022-11-27T04:30:22.819Z,6.59
2022-11-27T04:31:22.857Z,6.54
2022-11-27T04:32:22.830Z,6.54
2022-11-27T04:33:22.792Z,6.48
2022-11-27T04:34:22.906Z,6.45
2022-11-27T04:35:22.848Z,6.49
2022-11-27T04:36:22.749Z,6.49
2022-11-27T04:37:22.736Z,6.48
2022-11-27T04:38:22.759Z,6.56
2022-11-27T04:39:22.725Z,6.49
2022-11-27T04:40:22.768Z,6.52
2022-11-27T04:41:22.691Z,6.52
2022-11-27T04:42:22.684Z,6.38
2022-11-27T04:43:22.690Z,6.42
2022-11-27T04:44:22.693Z,6.39
2022-11-27T04:45:22.690Z,6.41
2022-11-27T04:46:22.773Z,6.45
2022-11-27T04:47:22.678Z,6.36
2022-11-27T04:48:22.641Z,6.39
2022-11-27T04:49:22.615Z,6.51
2022-11-27T04:50:22.800Z,6.48
2022-11-27T04:51:22.615Z,6.44
2022-11-27T04:52:22.615Z,6.54
2022-11-27T04:53:22.600Z,6.42
2022-11-27T04:54:22.561Z,6.54
2022-11-27T04:55:22.537Z,6.44
2022-11-27T04:56:22.533Z,6.56
2022-11-27T04:57:22.594Z,6.38
2022-11-27T04:58:22.506Z,6.44
2022-11-27T04:59:22.516Z,6.39
2022-11-27T05:00:22.485Z,6.35
2022-11-27T05:01:22.535Z,6.24
2022-11-27T05:02:22.513Z,6.24
2022-11-27T05:03:22.485Z,6.28
2022-11-27T05:04:22.441Z,6.36
2022-11-27T05:05:22.451Z,6.39
2022-11-27T05:06:22.546Z,6.51
2022-11-27T05:07:22.473Z,6.52
2022-11-27T05:08:22.434Z,6.49
2022-11-27T05:09:22.390Z,6.54
2022-11-27T05:10:22.374Z,6.56
2022-11-27T05:11:22.372Z,6.36
2022-11-27T05:12:22.364Z,6.51
2022-11-27T05:13:22.353Z,6.41
2022-11-27T05:14:22.361Z,6.42
2022-11-27T05:15:22.328Z,6.44
2022-11-27T05:16:22.426Z,6.41
2022-11-27T05:17:22.362Z,6.45
2022-11-27T05:18:22.288Z,6.44
2022-11-27T05:19:22.268Z,6.45
2022-11-27T05:20:22.318Z,6.45
2022-11-27T05:21:22.248Z,6.46
2022-11-27T05:22:22.377Z,6.41
2022-11-27T05:23:22.228Z,6.39
2022-11-27T05:24:22.227Z,6.48
2022-11-27T05:25:22.243Z,6.41
2022-11-27T05:26:22.206Z,6.39
2022-11-27T05:27:22.238Z,6.39
2022-11-27T05:28:26.372Z,6.38
2022-11-27T05:29:22.197Z,6.45
2022-11-27T05:30:22.182Z,6.49
2022-11-27T05:31:22.227Z,6.41
2022-11-27T05:32:22.149Z,6.39
2022-11-27T05:33:22.112Z,6.52
2022-11-27T05:34:22.133Z,6.52
2022-11-27T05:35:22.101Z,6.52
2022-11-27T05:36:22.103Z,6.44
2022-11-27T05:37:22.111Z,6.44
2022-11-27T05:38:22.164Z,6.54
2022-11-27T05:39:22.050Z,6.41
2022-11-27T05:40:22.093Z,6.41
2022-11-27T05:41:22.028Z,6.41
2022-11-27T05:42:22.047Z,6.44
2022-11-27T05:43:22.031Z,6.42
2022-11-27T05:44:22.055Z,6.44
2022-11-27T05:45:21.989Z,6.48
2022-11-27T05:46:22.013Z,6.41
2022-11-27T05:47:21.968Z,6.54
2022-11-27T05:48:21.948Z,6.44
2022-11-27T05:49:21.949Z,6.36
2022-11-27T05:50:21.953Z,6.42
2022-11-27T05:51:21.923Z,6.42
2022-11-27T05:52:21.919Z,6.44
2022-11-27T05:53:21.915Z,6.26
2022-11-27T05:54:27.698Z,6.41
2022-11-27T05:55:22.979Z,6.36
2022-11-27T05:56:21.857Z,6.38
2022-11-27T05:57:21.907Z,6.31
2022-11-27T05:58:21.856Z,6.26
2022-11-27T05:59:21.851Z,6.20
2022-11-27T06:00:21.822Z,6.28
2022-11-27T06:01:21.818Z,6.31
2022-11-27T06:02:27.857Z,6.35
2022-11-27T06:03:21.856Z,6.31
2022-11-27T06:04:21.794Z,6.38
2022-11-27T06:05:21.801Z,6.41
2022-11-27T06:06:21.752Z,6.41
2022-11-27T06:07:21.861Z,6.33
2022-11-27T06:08:21.730Z,6.20
2022-11-27T06:09:21.748Z,6.27
2022-11-27T06:10:21.709Z,6.28
2022-11-27T06:11:21.804Z,6.24
2022-11-27T06:12:21.738Z,6.27
2022-11-27T06:13:21.677Z,6.24
2022-11-27T06:14:21.713Z,6.26
2022-11-27T06:15:21.658Z,6.19
2022-11-27T06:16:21.675Z,6.14
2022-11-27T06:17:21.638Z,6.20
2022-11-27T06:18:21.631Z,6.16
2022-11-27T06:19:21.643Z,6.27
2022-11-27T06:20:21.606Z,6.31
2022-11-27T06:21:21.606Z,6.22
2022-11-27T06:22:21.607Z,6.22
2022-11-27T06:23:21.625Z,6.17
2022-11-27T06:24:21.560Z,6.20
2022-11-27T06:25:21.545Z,6.28
2022-11-27T06:26:21.529Z,6.20
2022-11-27T06:27:27.461Z,6.27
2022-11-27T06:28:22.653Z,6.28
2022-11-27T06:29:21.511Z,6.26
2022-11-27T06:30:21.506Z,6.28
2022-11-27T06:31:21.564Z,6.22
2022-11-27T06:32:21.514Z,6.19
2022-11-27T06:33:21.480Z,6.22
2022-11-27T06:34:21.486Z,6.22
2022-11-27T06:35:21.464Z,6.26
2022-11-27T06:36:21.447Z,6.24
2022-11-27T06:37:21.414Z,6.24
2022-11-27T06:38:21.395Z,6.17
2022-11-27T06:39:21.429Z,6.27
2022-11-27T06:40:21.407Z,6.24
2022-11-27T06:41:21.391Z,6.26
2022-11-27T06:42:21.404Z,6.30
2022-11-27T06:43:21.347Z,6.28
2022-11-27T06:44:21.480Z,6.30
2022-11-27T06:45:21.536Z,6.20
2022-11-27T06:46:21.366Z,6.24
2022-11-27T06:47:21.305Z,6.24
2022-11-27T06:48:21.327Z,6.27
2022-11-27T06:49:21.282Z,6.30
2022-11-27T06:50:21.301Z,6.33
2022-11-27T06:51:21.294Z,6.31
2022-11-27T06:52:21.285Z,6.27
2022-11-27T06:53:21.246Z,6.26
2022-11-27T06:54:21.258Z,6.27
2022-11-27T06:55:21.220Z,6.27
2022-11-27T06:56:21.214Z,6.27
2022-11-27T06:57:21.193Z,6.27
2022-11-27T06:58:21.190Z,6.27
2022-11-27T06:59:21.226Z,6.27
2022-11-27T07:00:21.340Z,6.24
2022-11-27T07:01:21.202Z,6.28
2022-11-27T07:02:21.255Z,6.41
2022-11-27T07:03:21.125Z,6.38
2022-11-27T07:04:21.144Z,6.41
2022-11-27T07:05:21.131Z,6.36
2022-11-27T07:06:21.130Z,6.48
2022-11-27T07:07:21.117Z,6.41
2022-11-27T07:08:21.111Z,6.38
2022-11-27T07:09:21.060Z,6.28
2022-11-27T07:10:21.081Z,6.44
2022-11-27T07:11:21.056Z,6.42
2022-11-27T07:12:21.033Z,6.49
2022-11-27T07:13:21.050Z,6.46
2022-11-27T07:14:21.018Z,6.38
2022-11-27T07:15:21.036Z,6.39
2022-11-27T07:16:21.190Z,6.51
2022-11-27T07:17:20.990Z,6.51
2022-11-27T07:18:20.971Z,6.56
2022-11-27T07:19:20.959Z,6.52
2022-11-27T07:20:20.985Z,6.62
2022-11-27T07:21:20.947Z,6.59
2022-11-27T07:22:20.933Z,6.54
2022-11-27T07:23:20.932Z,6.63
2022-11-27T07:24:20.953Z,6.56
2022-11-27T07:25:20.891Z,6.57
2022-11-27T07:26:20.879Z,6.57
2022-11-27T07:27:20.913Z,6.57
2022-11-27T07:28:20.868Z,6.66
2022-11-27T07:29:20.872Z,6.63
2022-11-27T07:30:20.837Z,6.59
2022-11-27T07:31:20.887Z,6.62
2022-11-27T07:32:20.922Z,6.66
2022-11-27T07:33:20.840Z,6.63
2022-11-27T07:34:21.847Z,6.62
2022-11-27T07:35:20.782Z,6.57
2022-11-27T07:36:20.808Z,6.69
2022-11-27T07:37:20.823Z,6.67
2022-11-27T07:38:20.750Z,6.57
2022-11-27T07:39:39.523Z,6.66
2022-11-27T07:40:20.740Z,6.63
2022-11-27T07:41:20.741Z,6.59
2022-11-27T07:42:37.638Z,6.63
2022-11-27T07:43:21.720Z,6.64
2022-11-27T07:44:20.680Z,6.63
2022-11-27T07:45:20.710Z,6.63
2022-11-27T07:46:20.795Z,6.67
2022-11-27T07:47:20.689Z,6.66
2022-11-27T07:48:20.749Z,6.64
2022-11-27T07:49:20.640Z,6.57
2022-11-27T07:50:20.621Z,6.77
2022-11-27T07:51:20.636Z,6.64
2022-11-27T07:52:20.628Z,6.69
2022-11-27T07:53:20.584Z,6.70
2022-11-27T07:54:20.573Z,6.74
2022-11-27T07:55:20.599Z,6.74
2022-11-27T07:56:20.551Z,6.81
2022-11-27T07:57:20.591Z,6.84
2022-11-27T07:58:20.547Z,6.78
2022-11-27T07:59:20.519Z,6.78
2022-11-27T08:00:20.515Z,6.79
2022-11-27T08:01:20.572Z,6.82
2022-11-27T08:02:20.483Z,6.81
2022-11-27T08:03:20.496Z,6.78
2022-11-27T08:04:20.638Z,6.78
2022-11-27T08:05:20.557Z,6.87
2022-11-27T08:06:20.456Z,6.85
2022-11-27T08:07:20.469Z,6.84
2022-11-27T08:08:20.436Z,6.87
2022-11-27T08:09:20.477Z,6.99
2022-11-27T08:10:20.401Z,6.88
2022-11-27T08:11:20.442Z,6.89
2022-11-27T08:12:20.392Z,6.92
2022-11-27T08:13:20.365Z,6.89
2022-11-27T08:14:20.355Z,6.89
2022-11-27T08:15:20.376Z,6.93
2022-11-27T08:16:20.373Z,6.97
2022-11-27T08:17:20.390Z,6.95
2022-11-27T08:18:20.330Z,7.05
2022-11-27T08:19:20.335Z,7.02
2022-11-27T08:20:20.412Z,6.97
2022-11-27T08:21:20.307Z,7.05
2022-11-27T08:22:20.309Z,7.00
2022-11-27T08:23:20.252Z,7.05
2022-11-27T08:24:20.260Z,7.17
2022-11-27T08:25:20.231Z,7.17
2022-11-27T08:26:20.240Z,7.15
2022-11-27T08:27:20.219Z,7.00
2022-11-27T08:28:20.241Z,7.14
2022-11-27T08:29:20.277Z,7.15
2022-11-27T08:30:20.176Z,7.18
2022-11-27T08:31:20.195Z,7.11
2022-11-27T08:32:20.175Z,7.17
2022-11-27T08:33:20.147Z,7.21
2022-11-27T08:34:20.198Z,7.15
2022-11-27T08:35:20.146Z,7.18
2022-11-27T08:36:20.259Z,7.20
2022-11-27T08:37:20.151Z,7.18
2022-11-27T08:38:20.100Z,7.29
2022-11-27T08:39:20.077Z,7.20
2022-11-27T08:40:20.063Z,7.24
2022-11-27T08:41:20.071Z,7.29
2022-11-27T08:42:20.078Z,7.25
2022-11-27T08:43:20.053Z,7.28
2022-11-27T08:44:20.040Z,7.25
2022-11-27T08:45:20.146Z,7.33
2022-11-27T08:46:20.074Z,7.32
2022-11-27T08:47:19.983Z,7.36
2022-11-27T08:48:19.978Z,7.36
2022-11-27T08:49:19.979Z,7.40
2022-11-27T08:50:19.989Z,7.40
2022-11-27T08:51:19.996Z,7.40
2022-11-27T08:52:20.068Z,7.39
2022-11-27T08:53:19.923Z,7.43
2022-11-27T08:54:19.908Z,7.54
2022-11-27T08:55:19.914Z,7.48
2022-11-27T08:56:19.907Z,7.58
2022-11-27T08:57:19.935Z,7.58
2022-11-27T08:58:19.906Z,7.53
2022-11-27T08:59:19.853Z,7.63
2022-11-27T09:00:24.904Z,7.63
2022-11-27T09:01:20.924Z,7.60
2022-11-27T09:02:19.826Z,7.53
2022-11-27T09:03:19.832Z,7.56
2022-11-27T09:04:19.902Z,7.56
2022-11-27T09:05:19.821Z,7.54
2022-11-27T09:06:19.803Z,7.58
2022-11-27T09:07:19.829Z,7.57
2022-11-27T09:08:19.867Z,7.54
2022-11-27T09:09:19.771Z,7.60
2022-11-27T09:10:19.762Z,7.63
2022-11-27T09:11:19.748Z,7.70
2022-11-27T09:12:19.761Z,7.75
2022-11-27T09:13:19.748Z,7.75
2022-11-27T09:14:19.695Z,7.82
2022-11-27T09:15:19.725Z,7.85
2022-11-27T09:16:19.745Z,7.82
2022-11-27T09:17:19.663Z,7.76
2022-11-27T09:18:19.694Z,7.83
2022-11-27T09:19:19.674Z,7.90
2022-11-27T09:20:19.636Z,7.91
2022-11-27T09:21:19.615Z,7.97
2022-11-27T09:22:19.627Z,7.93
2022-11-27T09:23:19.611Z,7.94
2022-11-27T09:24:19.695Z,7.95
2022-11-27T09:25:19.566Z,7.98
2022-11-27T09:26:19.596Z,8.03
2022-11-27T09:27:19.552Z,8.06
2022-11-27T09:28:19.533Z,8.03
2022-11-27T09:29:19.563Z,8.03
2022-11-27T09:30:19.516Z,8.06
2022-11-27T09:31:19.537Z,8.06
2022-11-27T09:32:19.570Z,8.10
2022-11-27T09:33:19.484Z,8.18
2022-11-27T09:34:19.504Z,8.09
2022-11-27T09:35:19.553Z,8.18
2022-11-27T09:36:19.459Z,8.18
2022-11-27T09:37:19.440Z,8.31
2022-11-27T09:38:19.420Z,8.34
2022-11-27T09:39:19.429Z,8.33
2022-11-27T09:40:19.509Z,8.23
2022-11-27T09:41:19.404Z,8.44
2022-11-27T09:42:19.376Z,8.38
2022-11-27T09:43:19.365Z,8.41
2022-11-27T09:44:19.355Z,8.44
2022-11-27T09:45:19.349Z,8.49
2022-11-27T09:46:19.448Z,8.51
2022-11-27T09:47:19.331Z,8.46
2022-11-27T09:48:19.345Z,8.52
2022-11-27T09:49:19.299Z,8.56
2022-11-27T09:50:19.289Z,8.56
2022-11-27T09:51:19.274Z,8.67
2022-11-27T09:52:19.269Z,8.67
2022-11-27T09:53:19.260Z,8.69
2022-11-27T09:54:19.271Z,8.74
2022-11-27T09:55:19.241Z,8.76
2022-11-27T09:56:19.340Z,8.78
2022-11-27T09:57:19.209Z,8.74
2022-11-27T09:58:19.247Z,8.73
2022-11-27T09:59:19.215Z,8.81
2022-11-27T10:00:19.178Z,8.82
2022-11-27T10:01:19.199Z,8.81
2022-11-27T10:02:19.301Z,8.85
2022-11-27T10:03:19.192Z,8.91
2022-11-27T10:04:19.209Z,8.88
2022-11-27T10:05:19.632Z,8.92
2022-11-27T10:06:19.154Z,8.99
2022-11-27T10:07:19.158Z,9.00
2022-11-27T10:08:19.097Z,9.08
2022-11-27T10:09:19.081Z,9.02
2022-11-27T10:10:19.083Z,9.11
2022-11-27T10:11:19.082Z,9.13
2022-11-27T10:12:19.171Z,9.22
2022-11-27T10:13:19.034Z,9.13
2022-11-27T10:14:19.020Z,9.22
2022-11-27T10:15:19.014Z,9.28
2022-11-27T10:16:19.087Z,9.23
2022-11-27T10:17:19.022Z,9.34
2022-11-27T10:18:18.983Z,9.31
2022-11-27T10:19:18.987Z,9.23
2022-11-27T10:20:18.965Z,9.32
2022-11-27T10:21:19.020Z,9.31
2022-11-27T10:22:21.198Z,9.29
2022-11-27T10:23:18.927Z,9.34
2022-11-27T10:24:18.918Z,9.29
2022-11-27T10:25:18.925Z,9.40
2022-11-27T10:26:18.989Z,9.50
2022-11-27T10:27:18.927Z,9.46
2022-11-27T10:28:18.982Z,9.46
2022-11-27T10:29:18.858Z,9.44
2022-11-27T10:30:18.855Z,9.41
2022-11-27T10:31:18.926Z,9.46
2022-11-27T10:32:47.224Z,9.32
2022-11-27T10:33:18.824Z,9.25
2022-11-27T10:34:18.833Z,9.36
2022-11-27T10:35:18.791Z,9.40
2022-11-27T10:36:18.847Z,9.43
2022-11-27T10:37:18.769Z,9.44
2022-11-27T10:38:18.759Z,9.55
2022-11-27T10:39:18.775Z,9.58
2022-11-27T10:40:18.851Z,9.64
2022-11-27T10:41:47.541Z,9.55
2022-11-27T10:42:18.740Z,9.61
2022-11-27T10:43:18.701Z,9.64
2022-11-27T10:44:18.806Z,9.69
2022-11-27T10:45:18.752Z,9.68
2022-11-27T10:46:18.741Z,9.69
2022-11-27T10:47:18.732Z,9.66
2022-11-27T10:48:18.662Z,9.74
2022-11-27T10:49:18.644Z,9.73
2022-11-27T10:50:18.690Z,9.77
2022-11-27T10:51:18.637Z,9.87
2022-11-27T10:52:18.690Z,9.84
2022-11-27T10:53:18.603Z,9.86
2022-11-27T10:54:18.587Z,9.92
2022-11-27T10:55:18.619Z,9.84
2022-11-27T10:56:18.567Z,9.79
2022-11-27T10:57:18.577Z,9.92
2022-11-27T10:58:18.599Z,9.94
2022-11-27T10:59:18.545Z,9.89
2022-11-27T11:00:18.702Z,10.10
2022-11-27T11:01:18.719Z,10.07
2022-11-27T11:02:18.595Z,10.02
2022-11-27T11:03:18.513Z,10.12
2022-11-27T11:04:37.026Z,10.12
2022-11-27T11:05:51.083Z,10.13
2022-11-27T11:06:21.767Z,10.19
2022-11-27T11:07:18.493Z,10.28
2022-11-27T11:08:18.445Z,10.30
2022-11-27T11:09:18.427Z,10.20
2022-11-27T11:10:18.465Z,10.22
2022-11-27T11:11:18.393Z,10.31
2022-11-27T11:12:18.437Z,10.26
2022-11-27T11:13:18.383Z,10.34
2022-11-27T11:14:18.382Z,10.20
2022-11-27T11:15:18.354Z,10.37
2022-11-27T11:16:23.379Z,10.26
2022-11-27T11:17:19.389Z,10.33
2022-11-27T11:18:18.328Z,10.20
2022-11-27T11:19:18.320Z,10.30
2022-11-27T11:20:18.370Z,10.35
2022-11-27T11:21:18.290Z,10.23
2022-11-27T11:22:18.299Z,10.25
2022-11-27T11:23:18.272Z,10.25
2022-11-27T11:24:18.256Z,10.35
2022-11-27T11:25:18.285Z,10.38
2022-11-27T11:26:18.240Z,10.44
2022-11-27T11:27:18.226Z,10.42
2022-11-27T11:28:18.257Z,10.56
2022-11-27T11:29:18.234Z,10.49
2022-11-27T11:30:18.188Z,10.48
2022-11-27T11:31:18.272Z,10.57
2022-11-27T11:32:18.330Z,10.61
2022-11-27T11:33:18.164Z,10.54
2022-11-27T11:34:18.155Z,10.64
2022-11-27T11:35:18.147Z,10.74
2022-11-27T11:36:18.161Z,10.68
2022-11-27T11:37:18.160Z,10.81
2022-11-27T11:38:18.126Z,10.79
2022-11-27T11:39:18.107Z,10.76
2022-11-27T11:40:18.096Z,10.75
2022-11-27T11:41:18.141Z,10.78
2022-11-27T11:42:18.075Z,10.82
2022-11-27T11:43:18.082Z,10.90
2022-11-27T11:44:18.039Z,10.84
2022-11-27T11:45:18.026Z,10.87
2022-11-27T11:46:18.103Z,10.87
2022-11-27T11:47:17.999Z,10.97
2022-11-27T11:48:18.136Z,10.97
2022-11-27T11:49:17.992Z,11.02
2022-11-27T11:50:17.994Z,11.10
2022-11-27T11:51:17.958Z,11.07
2022-11-27T11:52:18.067Z,11.12
2022-11-27T11:53:17.945Z,10.97
2022-11-27T11:54:17.943Z,10.99
2022-11-27T11:55:17.946Z,10.94
2022-11-27T11:56:17.945Z,11.08
2022-11-27T11:57:17.896Z,11.11
2022-11-27T11:58:17.906Z,11.10
2022-11-27T11:59:17.905Z,11.07
2022-11-27T12:00:17.968Z,11.11
2022-11-27T12:01:26.944Z,11.02
2022-11-27T12:02:18.912Z,11.14
2022-11-27T12:03:17.833Z,11.19
2022-11-27T12:04:17.946Z,11.14
2022-11-27T12:05:17.844Z,11.11
2022-11-27T12:06:17.824Z,11.05
2022-11-27T12:07:17.843Z,11.02
2022-11-27T12:08:17.772Z,11.12
2022-11-27T12:09:17.770Z,11.11
2022-11-27T12:10:17.764Z,11.02
2022-11-27T12:11:17.779Z,10.99
2022-11-27T12:12:17.782Z,11.15
2022-11-27T12:13:17.736Z,11.19
2022-11-27T12:14:17.711Z,11.18
2022-11-27T12:15:17.707Z,11.29
2022-11-27T12:16:17.780Z,11.27
2022-11-27T12:17:17.677Z,11.29
2022-11-27T12:18:17.769Z,11.26
2022-11-27T12:19:17.651Z,11.23
2022-11-27T12:20:17.786Z,11.32
2022-11-27T12:21:17.691Z,11.32
2022-11-27T12:22:17.630Z,11.37
2022-11-27T12:23:17.612Z,11.29
2022-11-27T12:24:17.610Z,11.23
2022-11-27T12:25:17.586Z,11.25
2022-11-27T12:26:17.666Z,11.32
2022-11-27T12:27:17.623Z,11.35
2022-11-27T12:28:17.553Z,11.40
2022-11-27T12:29:17.559Z,11.32
2022-11-27T12:30:17.584Z,11.32
2022-11-27T12:31:17.583Z,11.26
2022-11-27T12:32:17.584Z,11.27
2022-11-27T12:33:17.515Z,11.29
2022-11-27T12:34:17.500Z,11.26
2022-11-27T12:35:17.491Z,11.44
2022-11-27T12:36:23.357Z,11.41
2022-11-27T12:37:18.615Z,11.26
2022-11-27T12:38:17.446Z,11.29
2022-11-27T12:39:17.459Z,11.37
2022-11-27T12:40:17.426Z,11.35
2022-11-27T12:41:17.432Z,11.30
2022-11-27T12:42:21.736Z,11.33
2022-11-27T12:43:17.410Z,11.29
2022-11-27T12:44:17.387Z,11.22
2022-11-27T12:45:17.378Z,11.26
2022-11-27T12:46:17.397Z,11.35
2022-11-27T12:47:17.361Z,11.43
2022-11-27T12:48:17.374Z,11.45
2022-11-27T12:49:17.325Z,11.44
2022-11-27T12:50:17.376Z,11.44
2022-11-27T12:51:17.334Z,11.45
2022-11-27T12:52:17.303Z,11.40
2022-11-27T12:53:23.180Z,11.37
2022-11-27T12:54:18.269Z,11.26
2022-11-27T12:55:17.254Z,11.29
2022-11-27T12:56:17.267Z,11.27
2022-11-27T12:57:17.237Z,11.40
2022-11-27T12:58:17.234Z,11.41
2022-11-27T12:59:17.235Z,11.32
2022-11-27T13:00:17.244Z,11.25
2022-11-27T13:01:18.777Z,11.26
2022-11-27T13:02:17.266Z,11.26
2022-11-27T13:03:17.170Z,11.32
2022-11-27T13:04:17.198Z,11.23
2022-11-27T13:05:17.173Z,11.27
2022-11-27T13:06:17.134Z,11.30
2022-11-27T13:07:17.201Z,11.26
2022-11-27T13:08:17.125Z,11.23
2022-11-27T13:09:17.217Z,11.19
2022-11-27T13:10:17.115Z,11.22
2022-11-27T13:11:17.084Z,11.29
2022-11-27T13:12:17.075Z,11.17
2022-11-27T13:13:17.067Z,11.15